This is the latest recevied weather packets stored in our database for station/object KD9IXX-13. If no packets are shown the sender has not sent any weather packets the latest 1 day(s).
| Time | Temp. | Humidity | Pressure | Rain* | Wind** | Luminosity | Snow |
|---|---|---|---|---|---|---|---|
| 1777993802 | 10° C | 82% | 1010.5 hPa | 0 mm | 0.89 m/s, 301° | 690 W/m² | - |
| 1777993502 | 10° C | 85% | 1010.6 hPa | 0 mm | 0.89 m/s, 296° | 893 W/m² | - |
| 1777993201 | 9.44° C | 85% | 1010.8 hPa | 0 mm | 0.89 m/s, 270° | 760 W/m² | - |
| 1777992902 | 8.89° C | 88% | 1010.9 hPa | 0 mm | 0.89 m/s, 262° | 803 W/m² | - |
| 1777992602 | 8.89° C | 92% | 1010.9 hPa | 0 mm | 0 m/s | 773 W/m² | - |
| 1777992302 | 7.78° C | 93% | 1010.8 hPa | 0 mm | 0.89 m/s, 313° | 403 W/m² | - |
| 1777992002 | 7.78° C | 94% | 1010.7 hPa | 0 mm | 0.45 m/s, 314° | 250 W/m² | - |
| 1777991702 | 7.78° C | 96% | 1010.4 hPa | 0 mm | 0.45 m/s, 299° | 206 W/m² | - |
| 1777991402 | 7.78° C | 96% | 1010.5 hPa | 0 mm | 0.45 m/s, 305° | 207 W/m² | - |
| 1777991102 | 7.22° C | 96% | 1010.5 hPa | 0 mm | 0.45 m/s, 299° | 142 W/m² | - |
| 1777990802 | 7.22° C | 96% | 1010.8 hPa | 0 mm | 0.89 m/s, 311° | 76 W/m² | - |
| 1777990502 | 7.22° C | 96% | 1011.1 hPa | 0 mm | 0.89 m/s, 299° | 96 W/m² | - |
| 1777990202 | 7.22° C | 97% | 1011.2 hPa | 0 mm | 0.89 m/s, 283° | 120 W/m² | - |
| 1777989901 | 7.22° C | 97% | 1011.3 hPa | 0 mm | 1.34 m/s, 317° | 137 W/m² | - |
| 1777989602 | 7.22° C | 97% | 1011.3 hPa | 0 mm | 0.45 m/s, 299° | 131 W/m² | - |
| 1777989302 | 6.67° C | 96% | 1011.2 hPa | 1.02 mm | 0.89 m/s, 301° | 84 W/m² | - |
| 1777989002 | 6.67° C | 96% | 1011.2 hPa | 0 mm | 1.34 m/s, 307° | 55 W/m² | - |
| 1777988702 | 6.67° C | 96% | 1011.2 hPa | 0 mm | 0.89 m/s, 310° | 58 W/m² | - |
| 1777988402 | 6.67° C | 95% | 1011.3 hPa | 1.78 mm | 0.45 m/s, 299° | 46 W/m² | - |
| 1777988102 | 6.67° C | 95% | 1011.6 hPa | 1.78 mm | 0 m/s | 38 W/m² | - |
| 1777987802 | 7.22° C | 94% | 1011.8 hPa | 1.02 mm | 0 m/s | 35 W/m² | - |
| 1777987502 | 7.22° C | 93% | 1011.8 hPa | 2.79 mm | 0.45 m/s, 294° | 32 W/m² | - |
| 1777987202 | 7.22° C | 92% | 1011.4 hPa | 3.56 mm | 0.45 m/s, 296° | 29 W/m² | - |
| 1777986902 | 7.22° C | 91% | 1011.3 hPa | 1.78 mm | 0.89 m/s, 303° | 27 W/m² | - |
| 1777986602 | 7.22° C | 90% | 1010.8 hPa | 0 mm | 0.45 m/s, 302° | 19 W/m² | - |
* Rain latest hour (hover to see other rain measurements)
** Current wind speed in m/s (hover to see current wind gust speed)